createdAt,value
2022-11-13T00:00:46.342Z,1003.06
2022-11-13T00:01:46.347Z,1003.05
2022-11-13T00:02:46.350Z,1003.02
2022-11-13T00:03:46.307Z,1003.01
2022-11-13T00:04:46.325Z,1003.07
2022-11-13T00:05:46.314Z,1003.04
2022-11-13T00:06:46.412Z,1003.06
2022-11-13T00:07:46.283Z,1002.96
2022-11-13T00:08:46.263Z,1003.02
2022-11-13T00:09:46.274Z,1002.98
2022-11-13T00:10:46.269Z,1003.07
2022-11-13T00:11:46.224Z,1003.03
2022-11-13T00:12:46.219Z,1003.04
2022-11-13T00:13:46.195Z,1003.11
2022-11-13T00:14:46.224Z,1003.06
2022-11-13T00:15:46.240Z,1003.01
2022-11-13T00:16:46.186Z,1003.00
2022-11-13T00:17:46.157Z,1002.99
2022-11-13T00:18:46.178Z,1002.97
2022-11-13T00:19:46.160Z,1003.09
2022-11-13T00:20:46.130Z,1003.09
2022-11-13T00:21:46.157Z,1003.06
2022-11-13T00:22:46.188Z,1003.07
2022-11-13T00:23:46.106Z,1003.07
2022-11-13T00:24:46.119Z,1003.02
2022-11-13T00:25:47.082Z,1002.95
2022-11-13T00:26:46.076Z,1002.95
2022-11-13T00:27:46.061Z,1002.99
2022-11-13T00:28:46.046Z,1002.92
2022-11-13T00:29:46.033Z,1002.97
2022-11-13T00:30:46.034Z,1002.96
2022-11-13T00:31:46.024Z,1002.88
2022-11-13T00:32:45.993Z,1002.93
2022-11-13T00:34:09.223Z,1002.93
2022-11-13T00:34:48.629Z,1002.91
2022-11-13T00:35:46.980Z,1002.87
2022-11-13T00:36:45.951Z,1002.89
2022-11-13T00:37:45.953Z,1002.89
2022-11-13T00:38:46.054Z,1002.90
2022-11-13T00:39:45.918Z,1002.89
2022-11-13T00:40:45.922Z,1002.92
2022-11-13T00:41:45.899Z,1002.91
2022-11-13T00:42:45.911Z,1002.88
2022-11-13T00:43:45.874Z,1002.86
2022-11-13T00:44:45.877Z,1002.84
2022-11-13T00:45:45.870Z,1002.80
2022-11-13T00:46:45.838Z,1002.88
2022-11-13T00:47:45.856Z,1002.86
2022-11-13T00:48:45.824Z,1002.86
2022-11-13T00:49:45.813Z,1002.88
2022-11-13T00:50:45.800Z,1002.88
2022-11-13T00:51:45.814Z,1002.81
2022-11-13T00:52:45.792Z,1002.92
2022-11-13T00:53:45.781Z,1002.89
2022-11-13T00:54:45.860Z,1002.88
2022-11-13T00:55:45.740Z,1002.93
2022-11-13T00:56:45.735Z,1002.92
2022-11-13T00:57:45.745Z,1002.91
2022-11-13T00:58:45.720Z,1002.82
2022-11-13T00:59:45.702Z,1002.82
2022-11-13T01:00:45.691Z,1002.79
2022-11-13T01:01:45.740Z,1002.84
2022-11-13T01:02:45.663Z,1002.84
2022-11-13T01:03:45.670Z,1002.83
2022-11-13T01:04:46.665Z,1002.89
2022-11-13T01:05:45.647Z,1002.81
2022-11-13T01:06:45.670Z,1002.84
2022-11-13T01:07:45.646Z,1002.89
2022-11-13T01:08:45.599Z,1002.84
2022-11-13T01:09:45.601Z,1002.87
2022-11-13T01:10:51.928Z,1002.81
2022-11-13T01:11:46.575Z,1002.77
2022-11-13T01:12:45.577Z,1002.86
2022-11-13T01:13:45.585Z,1002.84
2022-11-13T01:14:45.536Z,1002.76
2022-11-13T01:15:46.540Z,1002.85
2022-11-13T01:16:45.547Z,1002.84
2022-11-13T01:17:45.515Z,1002.82
2022-11-13T01:18:45.519Z,1002.76
2022-11-13T01:19:45.506Z,1002.82
2022-11-13T01:20:45.488Z,1002.83
2022-11-13T01:21:45.470Z,1002.74
2022-11-13T01:22:45.478Z,1002.78
2022-11-13T01:23:45.475Z,1002.75
2022-11-13T01:24:45.435Z,1002.70
2022-11-13T01:25:45.433Z,1002.82
2022-11-13T01:26:45.508Z,1002.72
2022-11-13T01:27:45.407Z,1002.73
2022-11-13T01:28:45.436Z,1002.68
2022-11-13T01:29:45.408Z,1002.75
2022-11-13T01:30:45.383Z,1002.70
2022-11-13T01:31:45.363Z,1002.68
2022-11-13T01:32:45.358Z,1002.72
2022-11-13T01:33:45.367Z,1002.65
2022-11-13T01:34:45.353Z,1002.62
2022-11-13T01:35:45.323Z,1002.68
2022-11-13T01:36:45.310Z,1002.78
2022-11-13T01:37:45.304Z,1002.64
2022-11-13T01:38:45.314Z,1002.60
2022-11-13T01:39:45.277Z,1002.71
2022-11-13T01:40:45.282Z,1002.68
2022-11-13T01:41:45.284Z,1002.61
2022-11-13T01:42:45.358Z,1002.55
2022-11-13T01:43:45.242Z,1002.55
2022-11-13T01:44:45.248Z,1002.57
2022-11-13T01:45:45.218Z,1002.49
2022-11-13T01:46:45.229Z,1002.55
2022-11-13T01:47:45.211Z,1002.56
2022-11-13T01:48:45.211Z,1002.53
2022-11-13T01:49:45.178Z,1002.50
2022-11-13T01:50:45.174Z,1002.43
2022-11-13T01:51:45.160Z,1002.50
2022-11-13T01:52:45.161Z,1002.49
2022-11-13T01:53:45.138Z,1002.47
2022-11-13T01:54:45.126Z,1002.42
2022-11-13T01:55:45.134Z,1002.41
2022-11-13T01:56:45.107Z,1002.38
2022-11-13T01:57:45.109Z,1002.43
2022-11-13T01:58:45.167Z,1002.42
2022-11-13T01:59:45.062Z,1002.38
2022-11-13T02:00:45.064Z,1002.39
2022-11-13T02:01:45.117Z,1002.30
2022-11-13T02:02:46.034Z,1002.36
2022-11-13T02:03:45.031Z,1002.36
2022-11-13T02:04:45.020Z,1002.30
2022-11-13T02:05:45.016Z,1002.31
2022-11-13T02:06:45.006Z,1002.26
2022-11-13T02:07:44.999Z,1002.29
2022-11-13T02:08:44.979Z,1002.25
2022-11-13T02:09:44.963Z,1002.20
2022-11-13T02:10:44.952Z,1002.26
2022-11-13T02:11:44.955Z,1002.22
2022-11-13T02:12:44.944Z,1002.22
2022-11-13T02:13:44.919Z,1002.27
2022-11-13T02:14:44.988Z,1002.21
2022-11-13T02:15:44.920Z,1002.19
2022-11-13T02:16:44.884Z,1002.21
2022-11-13T02:17:44.903Z,1002.18
2022-11-13T02:18:44.882Z,1002.15
2022-11-13T02:19:44.856Z,1002.13
2022-11-13T02:20:44.871Z,1002.21
2022-11-13T02:21:44.839Z,1002.18
2022-11-13T02:22:44.842Z,1002.15
2022-11-13T02:23:44.819Z,1002.18
2022-11-13T02:24:45.796Z,1002.12
2022-11-13T02:25:45.812Z,1002.15
2022-11-13T02:26:44.806Z,1002.20
2022-11-13T02:27:44.807Z,1002.17
2022-11-13T02:28:44.780Z,1002.15
2022-11-13T02:29:44.758Z,1002.19
2022-11-13T02:30:44.841Z,1002.19
2022-11-13T02:31:44.752Z,1002.18
2022-11-13T02:32:44.756Z,1002.20
2022-11-13T02:33:44.719Z,1002.19
2022-11-13T02:34:44.708Z,1002.13
2022-11-13T02:35:44.721Z,1002.14
2022-11-13T02:36:44.676Z,1002.12
2022-11-13T02:37:44.675Z,1002.10
2022-11-13T02:38:44.696Z,1002.13
2022-11-13T02:39:44.655Z,1002.06
2022-11-13T02:40:44.635Z,1002.04
2022-11-13T02:41:44.639Z,1002.03
2022-11-13T02:42:44.611Z,1002.04
2022-11-13T02:43:44.624Z,1002.02
2022-11-13T02:44:44.598Z,1002.04
2022-11-13T02:45:44.618Z,1002.01
2022-11-13T02:46:44.672Z,1002.03
2022-11-13T02:47:44.566Z,1002.11
2022-11-13T02:48:44.581Z,1002.07
2022-11-13T02:49:44.544Z,1002.07
2022-11-13T02:50:44.549Z,1002.03
2022-11-13T02:51:44.525Z,1002.07
2022-11-13T02:52:44.581Z,1002.06
2022-11-13T02:53:44.498Z,1002.07
2022-11-13T02:54:44.479Z,1002.17
2022-11-13T02:55:44.506Z,1002.18
2022-11-13T02:56:44.473Z,1002.15
2022-11-13T02:57:44.447Z,1002.18
2022-11-13T02:58:44.441Z,1002.18
2022-11-13T02:59:44.463Z,1002.16
2022-11-13T03:00:44.441Z,1002.10
2022-11-13T03:01:44.442Z,1002.02
2022-11-13T03:02:44.487Z,1001.99
2022-11-13T03:03:59.750Z,1002.06
2022-11-13T03:05:10.939Z,1002.04
2022-11-13T03:05:46.398Z,1001.98
2022-11-13T03:06:44.413Z,1001.93
2022-11-13T03:07:44.347Z,1001.93
2022-11-13T03:08:44.342Z,1001.91
2022-11-13T03:09:44.320Z,1001.86
2022-11-13T03:10:44.323Z,1001.86
2022-11-13T03:11:44.319Z,1001.89
2022-11-13T03:12:44.288Z,1001.89
2022-11-13T03:13:44.297Z,1001.85
2022-11-13T03:14:44.269Z,1001.87
2022-11-13T03:15:44.286Z,1001.84
2022-11-13T03:16:44.276Z,1001.83
2022-11-13T03:17:44.234Z,1001.91
2022-11-13T03:18:44.320Z,1001.91
2022-11-13T03:19:44.217Z,1001.93
2022-11-13T03:20:44.217Z,1001.94
2022-11-13T03:21:44.205Z,1001.84
2022-11-13T03:22:44.184Z,1001.95
2022-11-13T03:23:44.176Z,1001.90
2022-11-13T03:24:44.172Z,1001.93
2022-11-13T03:25:44.186Z,1001.93
2022-11-13T03:26:44.149Z,1001.96
2022-11-13T03:27:44.142Z,1002.02
2022-11-13T03:28:44.130Z,1001.97
2022-11-13T03:29:44.111Z,1001.94
2022-11-13T03:30:44.113Z,1001.97
2022-11-13T03:31:44.092Z,1002.00
2022-11-13T03:32:44.079Z,1002.03
2022-11-13T03:33:44.062Z,1002.00
2022-11-13T03:34:44.149Z,1001.99
2022-11-13T03:35:46.880Z,1002.00
2022-11-13T03:36:45.042Z,1001.96
2022-11-13T03:37:44.027Z,1001.97
2022-11-13T03:38:44.004Z,1001.98
2022-11-13T03:39:44.014Z,1002.00
2022-11-13T03:40:43.990Z,1001.98
2022-11-13T03:41:43.969Z,1001.91
2022-11-13T03:42:43.966Z,1001.88
2022-11-13T03:43:43.956Z,1001.95
2022-11-13T03:44:43.950Z,1001.93
2022-11-13T03:45:43.918Z,1001.91
2022-11-13T03:46:43.912Z,1001.97
2022-11-13T03:47:43.930Z,1001.96
2022-11-13T03:48:43.899Z,1001.97
2022-11-13T03:49:43.866Z,1001.87
2022-11-13T03:50:45.586Z,1001.94
2022-11-13T03:51:44.857Z,1001.99
2022-11-13T03:52:43.862Z,1002.00
2022-11-13T03:53:43.847Z,1001.99
2022-11-13T03:54:43.837Z,1001.99
2022-11-13T03:55:43.799Z,1002.00
2022-11-13T03:56:43.812Z,1001.98
2022-11-13T03:57:43.823Z,1002.03
2022-11-13T03:58:49.315Z,1002.04
2022-11-13T03:59:45.803Z,1002.02
2022-11-13T04:00:43.769Z,1001.96
2022-11-13T04:01:43.807Z,1002.03
2022-11-13T04:02:43.756Z,1002.03
2022-11-13T04:03:43.757Z,1001.99
2022-11-13T04:04:43.718Z,1001.98
2022-11-13T04:05:43.711Z,1002.02
2022-11-13T04:06:43.917Z,1002.04
2022-11-13T04:07:43.666Z,1002.00
2022-11-13T04:08:43.693Z,1001.98
2022-11-13T04:09:43.709Z,1001.98
2022-11-13T04:10:43.652Z,1001.94
2022-11-13T04:11:43.650Z,1001.95
2022-11-13T04:12:43.645Z,1001.96
2022-11-13T04:13:43.640Z,1001.96
2022-11-13T04:14:43.648Z,1001.95
2022-11-13T04:15:43.608Z,1001.94
2022-11-13T04:16:43.617Z,1001.90
2022-11-13T04:17:43.595Z,1001.96
2022-11-13T04:18:43.584Z,1001.89
2022-11-13T04:19:43.560Z,1001.92
2022-11-13T04:20:43.568Z,1001.87
2022-11-13T04:21:43.536Z,1001.88
2022-11-13T04:22:43.606Z,1001.88
2022-11-13T04:23:43.530Z,1001.81
2022-11-13T04:24:43.530Z,1001.79
2022-11-13T04:25:43.491Z,1001.82
2022-11-13T04:26:43.499Z,1001.83
2022-11-13T04:27:43.483Z,1001.79
2022-11-13T04:28:43.485Z,1001.84
2022-11-13T04:29:43.445Z,1001.74
2022-11-13T04:30:43.472Z,1001.78
2022-11-13T04:31:43.413Z,1001.79
2022-11-13T04:32:43.419Z,1001.75
2022-11-13T04:33:43.415Z,1001.78
2022-11-13T04:34:43.404Z,1001.75
2022-11-13T04:35:43.401Z,1001.73
2022-11-13T04:36:43.412Z,1001.73
2022-11-13T04:37:43.365Z,1001.74
2022-11-13T04:38:43.433Z,1001.76
2022-11-13T04:39:43.360Z,1001.76
2022-11-13T04:40:43.361Z,1001.67
2022-11-13T04:41:43.312Z,1001.63
2022-11-13T04:42:43.319Z,1001.57
2022-11-13T04:43:43.323Z,1001.66
2022-11-13T04:44:43.283Z,1001.63
2022-11-13T04:45:43.283Z,1001.61
2022-11-13T04:46:43.291Z,1001.61
2022-11-13T04:47:43.303Z,1001.61
2022-11-13T04:48:43.256Z,1001.61
2022-11-13T04:49:43.260Z,1001.61
2022-11-13T04:50:43.255Z,1001.63
2022-11-13T04:51:43.199Z,1001.63
2022-11-13T04:52:43.247Z,1001.60
2022-11-13T04:53:43.189Z,1001.57
2022-11-13T04:54:43.258Z,1001.59
2022-11-13T04:55:43.169Z,1001.60
2022-11-13T04:56:43.190Z,1001.52
2022-11-13T04:57:43.150Z,1001.51
2022-11-13T04:58:43.127Z,1001.62
2022-11-13T04:59:43.158Z,1001.62
2022-11-13T05:00:43.113Z,1001.60
2022-11-13T05:01:43.119Z,1001.58
2022-11-13T05:02:43.099Z,1001.60
2022-11-13T05:03:43.090Z,1001.62
2022-11-13T05:04:43.086Z,1001.64
2022-11-13T05:05:43.068Z,1001.68
2022-11-13T05:06:43.130Z,1001.67
2022-11-13T05:07:43.054Z,1001.64
2022-11-13T05:08:43.039Z,1001.64
2022-11-13T05:09:43.020Z,1001.63
2022-11-13T05:11:15.041Z,1001.64
2022-11-13T05:11:43.001Z,1001.53
2022-11-13T05:12:42.978Z,1001.62
2022-11-13T05:13:42.988Z,1001.69
2022-11-13T05:14:42.980Z,1001.65
2022-11-13T05:15:42.963Z,1001.59
2022-11-13T05:16:42.967Z,1001.58
2022-11-13T05:17:43.089Z,1001.53
2022-11-13T05:18:42.941Z,1001.57
2022-11-13T05:19:42.922Z,1001.45
2022-11-13T05:20:42.892Z,1001.51
2022-11-13T05:21:42.899Z,1001.42
2022-11-13T05:22:42.869Z,1001.45
2022-11-13T05:23:42.856Z,1001.49
2022-11-13T05:24:42.867Z,1001.43
2022-11-13T05:25:42.838Z,1001.48
2022-11-13T05:26:42.936Z,1001.43
2022-11-13T05:27:42.868Z,1001.38
2022-11-13T05:28:42.831Z,1001.39
2022-11-13T05:29:42.810Z,1001.44
2022-11-13T05:30:42.809Z,1001.47
2022-11-13T05:31:42.771Z,1001.46
2022-11-13T05:32:42.801Z,1001.42
2022-11-13T05:33:42.755Z,1001.40
2022-11-13T05:34:42.754Z,1001.43
2022-11-13T05:35:42.725Z,1001.45
2022-11-13T05:36:42.721Z,1001.40
2022-11-13T05:37:42.713Z,1001.40
2022-11-13T05:38:42.715Z,1001.40
2022-11-13T05:39:42.708Z,1001.37
2022-11-13T05:40:42.693Z,1001.37
2022-11-13T05:41:42.697Z,1001.46
2022-11-13T05:42:42.749Z,1001.34
2022-11-13T05:43:42.649Z,1001.39
2022-11-13T05:44:42.657Z,1001.38
2022-11-13T05:45:42.615Z,1001.28
2022-11-13T05:46:42.608Z,1001.28
2022-11-13T05:47:42.596Z,1001.29
2022-11-13T05:48:42.600Z,1001.28
2022-11-13T05:49:42.581Z,1001.18
2022-11-13T05:50:42.576Z,1001.23
2022-11-13T05:51:42.612Z,1001.14
2022-11-13T05:52:42.560Z,1001.15
2022-11-13T05:53:42.554Z,1001.17
2022-11-13T05:54:42.531Z,1001.14
2022-11-13T05:55:42.506Z,1001.14
2022-11-13T05:56:42.498Z,1001.08
2022-11-13T05:57:42.499Z,1001.06
2022-11-13T05:58:42.588Z,1001.05
2022-11-13T05:59:42.467Z,1001.11
2022-11-13T06:00:42.460Z,1001.14
2022-11-13T06:01:42.552Z,1001.08
2022-11-13T06:02:42.466Z,1001.09
2022-11-13T06:03:42.438Z,1001.06
2022-11-13T06:04:42.417Z,1000.99
2022-11-13T06:05:42.437Z,1000.92
2022-11-13T06:06:42.440Z,1000.96
2022-11-13T06:07:42.398Z,1000.95
2022-11-13T06:08:42.377Z,1001.03
2022-11-13T06:09:42.383Z,1000.91
2022-11-13T06:10:42.347Z,1000.98
2022-11-13T06:11:42.346Z,1001.01
2022-11-13T06:12:42.356Z,1001.04
2022-11-13T06:13:42.321Z,1000.99
2022-11-13T06:14:42.395Z,1000.99
2022-11-13T06:15:42.315Z,1000.95
2022-11-13T06:16:42.318Z,1000.90
2022-11-13T06:17:42.274Z,1001.01
2022-11-13T06:18:42.263Z,1000.97
2022-11-13T06:19:42.253Z,1000.98
2022-11-13T06:20:42.251Z,1000.99
2022-11-13T06:21:42.248Z,1000.98
2022-11-13T06:22:42.243Z,1001.02
2022-11-13T06:23:42.220Z,1000.98
2022-11-13T06:24:42.225Z,1000.96
2022-11-13T06:25:42.198Z,1000.93
2022-11-13T06:26:42.198Z,1000.95
2022-11-13T06:27:42.162Z,1000.89
2022-11-13T06:28:42.166Z,1000.85
2022-11-13T06:29:42.160Z,1000.90
2022-11-13T06:30:42.219Z,1000.79
2022-11-13T06:31:42.145Z,1000.83
2022-11-13T06:32:42.110Z,1000.92
2022-11-13T06:33:42.102Z,1000.89
2022-11-13T06:34:42.103Z,1000.84
2022-11-13T06:35:42.110Z,1000.83
2022-11-13T06:36:42.084Z,1000.71
2022-11-13T06:37:42.084Z,1000.83
2022-11-13T06:38:42.102Z,1000.76
2022-11-13T06:39:42.069Z,1000.70
2022-11-13T06:40:42.017Z,1000.72
2022-11-13T06:41:42.024Z,1000.66
2022-11-13T06:42:42.014Z,1000.65
2022-11-13T06:43:42.058Z,1000.68
2022-11-13T06:44:41.993Z,1000.58
2022-11-13T06:45:41.989Z,1000.65
2022-11-13T06:46:42.072Z,1000.66
2022-11-13T06:47:41.962Z,1000.69
2022-11-13T06:48:41.945Z,1000.62
2022-11-13T06:49:41.945Z,1000.67
2022-11-13T06:50:47.163Z,1000.66
2022-11-13T06:51:43.904Z,1000.73
2022-11-13T06:52:41.921Z,1000.77
2022-11-13T06:53:41.880Z,1000.69
2022-11-13T06:54:41.881Z,1000.63
2022-11-13T06:55:41.881Z,1000.64
2022-11-13T06:56:41.858Z,1000.64
2022-11-13T06:57:41.853Z,1000.67
2022-11-13T06:58:41.844Z,1000.70
2022-11-13T06:59:41.842Z,1000.70
2022-11-13T07:00:41.931Z,1000.68
2022-11-13T07:01:41.851Z,1000.77
2022-11-13T07:02:41.877Z,1000.71
2022-11-13T07:03:41.799Z,1000.73
2022-11-13T07:04:41.774Z,1000.68
2022-11-13T07:05:41.759Z,1000.68
2022-11-13T07:06:41.789Z,1000.65
2022-11-13T07:07:41.769Z,1000.62
2022-11-13T07:08:41.751Z,1000.62
2022-11-13T07:09:41.722Z,1000.51
2022-11-13T07:10:41.736Z,1000.60
2022-11-13T07:11:41.715Z,1000.57
2022-11-13T07:12:41.680Z,1000.54
2022-11-13T07:13:41.662Z,1000.56
2022-11-13T07:14:41.657Z,1000.56
2022-11-13T07:15:42.665Z,1000.57
2022-11-13T07:17:07.338Z,1000.49
2022-11-13T07:17:43.708Z,1000.56
2022-11-13T07:18:41.616Z,1000.52
2022-11-13T07:19:41.657Z,1000.48
2022-11-13T07:20:41.624Z,1000.51
2022-11-13T07:21:41.601Z,1000.48
2022-11-13T07:22:41.599Z,1000.45
2022-11-13T07:23:41.595Z,1000.48
2022-11-13T07:24:41.571Z,1000.52
2022-11-13T07:25:41.545Z,1000.46
2022-11-13T07:26:41.521Z,1000.46
2022-11-13T07:27:41.535Z,1000.41
2022-11-13T07:28:41.510Z,1000.41
2022-11-13T07:29:41.506Z,1000.41
2022-11-13T07:30:41.507Z,1000.38
2022-11-13T07:31:41.507Z,1000.43
2022-11-13T07:32:41.498Z,1000.46
2022-11-13T07:33:41.580Z,1000.39
2022-11-13T07:34:41.478Z,1000.46
2022-11-13T07:35:41.464Z,1000.46
2022-11-13T07:36:41.423Z,1000.48
2022-11-13T07:37:41.411Z,1000.49
2022-11-13T07:38:41.413Z,1000.51
2022-11-13T07:39:41.390Z,1000.47
2022-11-13T07:40:41.383Z,1000.48
2022-11-13T07:41:41.385Z,1000.46
2022-11-13T07:42:41.377Z,1000.36
2022-11-13T07:43:41.383Z,1000.42
2022-11-13T07:44:53.948Z,1000.42
2022-11-13T07:45:43.499Z,1000.46
2022-11-13T07:46:41.317Z,1000.46
2022-11-13T07:47:41.346Z,1000.50
2022-11-13T07:48:41.294Z,1000.41
2022-11-13T07:49:41.370Z,1000.40
2022-11-13T07:50:41.267Z,1000.41
2022-11-13T07:51:41.258Z,1000.43
2022-11-13T07:52:41.630Z,1000.42
2022-11-13T07:53:41.266Z,1000.43
2022-11-13T07:54:41.251Z,1000.51
2022-11-13T07:55:41.241Z,1000.49
2022-11-13T07:56:42.204Z,1000.47
2022-11-13T07:57:41.229Z,1000.45
2022-11-13T07:58:41.199Z,1000.47
2022-11-13T07:59:41.166Z,1000.46
2022-11-13T08:00:41.208Z,1000.40
2022-11-13T08:01:41.163Z,1000.42
2022-11-13T08:02:41.148Z,1000.40
2022-11-13T08:03:41.139Z,1000.41
2022-11-13T08:04:41.124Z,1000.40
2022-11-13T08:05:41.212Z,1000.40
2022-11-13T08:06:41.167Z,1000.49
2022-11-13T08:07:41.131Z,1000.43
2022-11-13T08:08:41.094Z,1000.44
2022-11-13T08:09:41.062Z,1000.38
2022-11-13T08:10:41.074Z,1000.42
2022-11-13T08:11:41.050Z,1000.39
2022-11-13T08:12:41.065Z,1000.33
2022-11-13T08:13:41.036Z,1000.33
2022-11-13T08:14:41.003Z,1000.35
2022-11-13T08:15:41.015Z,1000.35
2022-11-13T08:16:41.009Z,1000.29
2022-11-13T08:17:41.057Z,1000.31
2022-11-13T08:18:40.971Z,1000.26
2022-11-13T08:19:40.957Z,1000.28
2022-11-13T08:20:40.961Z,1000.26
2022-11-13T08:21:41.027Z,1000.27
2022-11-13T08:22:40.926Z,1000.30
2022-11-13T08:23:40.938Z,1000.25
2022-11-13T08:24:40.904Z,1000.19
2022-11-13T08:25:40.934Z,1000.16
2022-11-13T08:26:40.888Z,1000.12
2022-11-13T08:27:40.901Z,1000.14
2022-11-13T08:28:40.893Z,1000.14
2022-11-13T08:29:40.866Z,1000.10
2022-11-13T08:30:40.879Z,1000.12
2022-11-13T08:31:40.865Z,1000.03
2022-11-13T08:32:40.832Z,1000.09
2022-11-13T08:33:40.792Z,1000.08
2022-11-13T08:34:40.791Z,1000.12
2022-11-13T08:35:40.784Z,1000.00
2022-11-13T08:36:40.807Z,1000.00
2022-11-13T08:37:40.846Z,999.94
2022-11-13T08:38:40.765Z,999.94
2022-11-13T08:39:40.774Z,999.93
2022-11-13T08:40:40.751Z,999.90
2022-11-13T08:41:40.745Z,999.84
2022-11-13T08:42:40.725Z,999.89
2022-11-13T08:43:40.683Z,999.96
2022-11-13T08:44:40.703Z,999.91
2022-11-13T08:45:40.674Z,999.90
2022-11-13T08:46:40.677Z,999.84
2022-11-13T08:47:40.657Z,999.91
2022-11-13T08:48:40.638Z,999.83
2022-11-13T08:49:40.651Z,999.84
2022-11-13T08:50:40.623Z,999.73
2022-11-13T08:51:40.635Z,999.82
2022-11-13T08:52:40.616Z,999.76
2022-11-13T08:53:40.675Z,999.84
2022-11-13T08:54:40.577Z,999.84
2022-11-13T08:55:40.555Z,999.77
2022-11-13T08:56:40.546Z,999.78
2022-11-13T08:57:40.554Z,999.79
2022-11-13T08:58:40.527Z,999.84
2022-11-13T08:59:40.528Z,999.76
2022-11-13T09:00:40.542Z,999.77
2022-11-13T09:01:40.522Z,999.72
2022-11-13T09:02:40.547Z,999.72
2022-11-13T09:03:40.621Z,999.70
2022-11-13T09:04:40.507Z,999.71
2022-11-13T09:05:40.455Z,999.63
2022-11-13T09:06:40.503Z,999.63
2022-11-13T09:07:40.445Z,999.65
2022-11-13T09:08:40.418Z,999.60
2022-11-13T09:09:40.510Z,999.59
2022-11-13T09:10:40.409Z,999.59
2022-11-13T09:11:41.433Z,999.54
2022-11-13T09:12:40.381Z,999.53
2022-11-13T09:13:44.480Z,999.56
2022-11-13T09:14:42.377Z,999.55
2022-11-13T09:15:40.405Z,999.56
2022-11-13T09:16:40.353Z,999.53
2022-11-13T09:17:40.331Z,999.46
2022-11-13T09:18:40.322Z,999.47
2022-11-13T09:19:40.350Z,999.44
2022-11-13T09:20:40.354Z,999.49
2022-11-13T09:21:40.297Z,999.48
2022-11-13T09:22:40.281Z,999.41
2022-11-13T09:23:40.264Z,999.38
2022-11-13T09:24:40.270Z,999.35
2022-11-13T09:25:40.393Z,999.40
2022-11-13T09:26:40.249Z,999.42
2022-11-13T09:27:40.265Z,999.32
2022-11-13T09:28:40.265Z,999.32
2022-11-13T09:29:40.231Z,999.31
2022-11-13T09:30:40.192Z,999.31
2022-11-13T09:31:40.207Z,999.40
2022-11-13T09:32:40.169Z,999.34
2022-11-13T09:33:40.179Z,999.28
2022-11-13T09:34:40.177Z,999.25
2022-11-13T09:35:40.161Z,999.28
2022-11-13T09:36:40.145Z,999.26
2022-11-13T09:37:40.136Z,999.27
2022-11-13T09:38:40.152Z,999.24
2022-11-13T09:39:40.104Z,999.16
2022-11-13T09:40:40.112Z,999.16
2022-11-13T09:41:40.163Z,999.15
2022-11-13T09:42:40.071Z,999.09
2022-11-13T09:43:40.106Z,999.09
2022-11-13T09:44:40.060Z,999.08
2022-11-13T09:45:40.058Z,999.06
2022-11-13T09:46:40.027Z,999.09
2022-11-13T09:47:40.026Z,999.02
2022-11-13T09:48:40.025Z,999.01
2022-11-13T09:49:40.005Z,999.02
2022-11-13T09:50:40.009Z,999.03
2022-11-13T09:51:39.995Z,998.91
2022-11-13T09:52:39.975Z,998.90
2022-11-13T09:53:39.948Z,998.90
2022-11-13T09:54:39.950Z,998.89
2022-11-13T09:55:39.961Z,998.91
2022-11-13T09:56:39.913Z,998.91
2022-11-13T09:57:41.037Z,998.98
2022-11-13T09:58:39.960Z,998.93
2022-11-13T09:59:39.909Z,998.94
2022-11-13T10:00:39.929Z,998.98
2022-11-13T10:01:39.897Z,998.90
2022-11-13T10:02:39.903Z,998.91
2022-11-13T10:03:59.745Z,998.89
2022-11-13T10:04:41.868Z,998.98
2022-11-13T10:05:39.833Z,998.89
2022-11-13T10:06:39.896Z,998.90
2022-11-13T10:07:39.814Z,998.88
2022-11-13T10:08:39.788Z,998.85
2022-11-13T10:09:39.785Z,998.90
2022-11-13T10:10:39.789Z,998.91
2022-11-13T10:11:39.780Z,998.87
2022-11-13T10:12:39.766Z,998.84
2022-11-13T10:13:39.883Z,998.82
2022-11-13T10:14:39.747Z,998.84
2022-11-13T10:15:39.745Z,998.82
2022-11-13T10:16:39.730Z,998.79
2022-11-13T10:17:39.708Z,998.73
2022-11-13T10:18:39.680Z,998.76
2022-11-13T10:19:39.691Z,998.65
2022-11-13T10:20:39.669Z,998.63
2022-11-13T10:21:39.665Z,998.70
2022-11-13T10:22:39.666Z,998.68
2022-11-13T10:23:39.637Z,998.53
2022-11-13T10:24:39.640Z,998.55
2022-11-13T10:25:39.641Z,998.58
2022-11-13T10:26:39.626Z,998.56
2022-11-13T10:27:39.626Z,998.56
2022-11-13T10:28:55.144Z,998.51
2022-11-13T10:29:46.211Z,998.46
2022-11-13T10:30:41.578Z,998.47
2022-11-13T10:31:39.561Z,998.52
2022-11-13T10:32:39.542Z,998.46
2022-11-13T10:33:39.549Z,998.43
2022-11-13T10:34:39.537Z,998.43
2022-11-13T10:35:39.530Z,998.40
2022-11-13T10:36:39.517Z,998.34
2022-11-13T10:37:39.510Z,998.30
2022-11-13T10:38:39.497Z,998.24
2022-11-13T10:39:39.469Z,998.33
2022-11-13T10:40:39.467Z,998.24
2022-11-13T10:41:39.459Z,998.20
2022-11-13T10:42:39.445Z,998.20
2022-11-13T10:43:39.435Z,998.14
2022-11-13T10:44:39.461Z,998.19
2022-11-13T10:45:39.510Z,998.20
2022-11-13T10:46:39.421Z,998.20
2022-11-13T10:48:02.694Z,998.18
2022-11-13T10:48:41.383Z,998.19
2022-11-13T10:49:39.382Z,998.10
2022-11-13T10:50:39.393Z,998.04
2022-11-13T10:51:39.342Z,998.09
2022-11-13T10:52:39.323Z,998.05
2022-11-13T10:53:39.314Z,998.02
2022-11-13T10:54:39.334Z,998.06
2022-11-13T10:55:39.310Z,998.04
2022-11-13T10:56:39.288Z,998.00
2022-11-13T10:57:39.289Z,997.98
2022-11-13T10:58:39.289Z,998.00
2022-11-13T10:59:39.287Z,997.94
2022-11-13T11:00:39.260Z,997.85
2022-11-13T11:01:39.340Z,997.90
2022-11-13T11:02:39.242Z,997.91
2022-11-13T11:03:39.220Z,997.89
2022-11-13T11:04:39.190Z,997.92
2022-11-13T11:05:39.187Z,997.94
2022-11-13T11:07:17.945Z,997.87
2022-11-13T11:07:41.247Z,997.86
2022-11-13T11:08:39.174Z,997.87
2022-11-13T11:09:39.173Z,997.83
2022-11-13T11:10:39.172Z,997.81
2022-11-13T11:12:14.496Z,997.85
2022-11-13T11:12:39.512Z,997.85
2022-11-13T11:13:39.143Z,997.84
2022-11-13T11:14:39.103Z,997.75
2022-11-13T11:15:39.104Z,997.78
2022-11-13T11:16:39.088Z,997.68
2022-11-13T11:17:39.150Z,997.71
2022-11-13T11:18:39.076Z,997.66
2022-11-13T11:19:39.063Z,997.69
2022-11-13T11:20:39.055Z,997.63
2022-11-13T11:21:39.032Z,997.63
2022-11-13T11:22:39.030Z,997.60
2022-11-13T11:23:39.003Z,997.55
2022-11-13T11:24:38.997Z,997.55
2022-11-13T11:25:39.000Z,997.47
2022-11-13T11:26:38.987Z,997.48
2022-11-13T11:27:38.966Z,997.46
2022-11-13T11:28:38.952Z,997.39
2022-11-13T11:29:38.944Z,997.37
2022-11-13T11:30:38.935Z,997.40
2022-11-13T11:31:38.902Z,997.34
2022-11-13T11:32:38.905Z,997.34
2022-11-13T11:33:38.981Z,997.34
2022-11-13T11:34:38.887Z,997.21
2022-11-13T11:35:38.877Z,997.26
2022-11-13T11:36:38.860Z,997.30
2022-11-13T11:37:38.843Z,997.17
2022-11-13T11:38:38.849Z,997.20
2022-11-13T11:39:38.833Z,997.22
2022-11-13T11:40:38.788Z,997.20
2022-11-13T11:41:38.789Z,997.15
2022-11-13T11:42:38.815Z,997.13
2022-11-13T11:43:38.801Z,997.18
2022-11-13T11:44:38.772Z,997.13
2022-11-13T11:45:38.763Z,997.11
2022-11-13T11:46:41.643Z,997.17
2022-11-13T11:47:39.763Z,997.10
2022-11-13T11:48:38.697Z,997.09
2022-11-13T11:49:38.798Z,997.09
2022-11-13T11:50:38.705Z,997.18
2022-11-13T11:51:38.690Z,997.05
2022-11-13T11:52:38.664Z,997.06
2022-11-13T11:53:38.666Z,997.01
2022-11-13T11:54:38.656Z,997.04
2022-11-13T11:55:38.651Z,997.03
2022-11-13T11:56:38.654Z,997.02
2022-11-13T11:57:38.625Z,997.01
2022-11-13T11:58:38.603Z,996.96
2022-11-13T11:59:38.592Z,996.95
2022-11-13T12:00:38.582Z,996.87
2022-11-13T12:01:38.571Z,996.85
2022-11-13T12:02:38.576Z,996.81
2022-11-13T12:03:38.538Z,996.80
2022-11-13T12:04:38.602Z,996.71
2022-11-13T12:05:38.798Z,996.75
2022-11-13T12:06:38.555Z,996.76
2022-11-13T12:07:38.530Z,996.68
2022-11-13T12:08:38.512Z,996.64
2022-11-13T12:09:38.473Z,996.69
2022-11-13T12:10:38.484Z,996.61
2022-11-13T12:11:38.449Z,996.58
2022-11-13T12:12:38.450Z,996.58